Time;durP1;ratioP1;P1;durP2;ratioP2;P2;SDS_P1;SDS_P2;PMS_P1;PMS_P2;Temp;Humidity;BMP_temperature;BMP_pressure;BME280_temperature;BME280_humidity;BME280_pressure;Samples;Min_cycle;Max_cycle;Signal;HPM_P1;HPM_P2
2023/06/12 00:01:08;;;;;;;8.73;5.10;;;22.90;90.70;;;;;;5121022;27;20394;-78
2023/06/12 00:03:34;;;;;;;10.98;5.10;;;22.90;90.60;;;;;;5154970;27;20035;-78
2023/06/12 00:06:00;;;;;;;9.65;5.03;;;22.90;90.60;;;;;;5138202;27;20041;-82
2023/06/12 00:08:33;;;;;;;12.85;5.32;;;22.80;90.50;;;;;;5136277;27;20514;-80
2023/06/12 00:10:59;;;;;;;7.68;5.10;;;22.80;90.50;;;;;;5136745;27;20038;-80
2023/06/12 00:13:25;;;;;;;9.25;5.10;;;22.70;90.60;;;;;;5136771;27;20035;-81
2023/06/12 00:15:51;;;;;;;11.07;5.38;;;22.70;90.50;;;;;;5137409;27;20032;-80
2023/06/12 00:18:17;;;;;;;9.20;5.30;;;22.70;90.50;;;;;;5136063;27;20019;-80
2023/06/12 00:20:43;;;;;;;8.05;5.10;;;22.70;90.50;;;;;;5135884;27;20039;-79
2023/06/12 00:23:11;;;;;;;10.10;5.45;;;22.80;90.50;;;;;;5135694;27;20035;-81
2023/06/12 00:25:38;;;;;;;7.82;5.22;;;22.80;90.40;;;;;;5136084;27;20400;-80
2023/06/12 00:28:04;;;;;;;12.43;6.07;;;22.80;90.40;;;;;;5135632;27;20024;-79
2023/06/12 00:30:30;;;;;;;11.50;5.38;;;22.70;90.40;;;;;;5136707;27;20053;-80
2023/06/12 00:32:55;;;;;;;10.55;5.28;;;22.70;90.40;;;;;;5135942;27;20131;-80
2023/06/12 00:35:21;;;;;;;13.40;6.07;;;22.70;90.40;;;;;;5136071;27;20031;-80
2023/06/12 00:37:47;;;;;;;7.95;4.75;;;22.70;90.50;;;;;;5135691;27;20019;-80
2023/06/12 00:40:13;;;;;;;9.88;4.72;;;22.70;90.50;;;;;;5135664;27;20035;-79
2023/06/12 00:42:50;;;;;;;8.40;4.90;;;22.60;90.40;;;;;;5135578;27;20023;-80
2023/06/12 00:45:19;;;;;;;7.40;4.22;;;22.50;90.50;;;;;;5135616;27;20039;-80
2023/06/12 00:47:48;;;;;;;10.80;4.40;;;22.50;90.50;;;;;;5135313;27;20016;-80
2023/06/12 00:50:14;;;;;;;10.63;4.78;;;22.60;90.50;;;;;;5135615;27;20114;-79
2023/06/12 00:52:46;;;;;;;10.48;4.50;;;22.50;90.40;;;;;;5135439;27;20491;-80
2023/06/12 00:55:13;;;;;;;13.73;4.70;;;22.50;90.40;;;;;;5135356;27;20414;-79
2023/06/12 00:57:38;;;;;;;7.72;3.88;;;22.40;90.50;;;;;;5135531;27;20022;-80
2023/06/12 01:00:09;;;;;;;6.65;3.95;;;22.30;90.50;;;;;;5135552;27;20031;-79
2023/06/12 01:02:39;;;;;;;8.00;4.43;;;22.30;90.60;;;;;;5136214;27;20058;-80
2023/06/12 01:05:08;;;;;;;11.75;4.10;;;22.20;90.60;;;;;;5135959;27;20080;-80
2023/06/12 01:07:44;;;;;;;9.10;3.67;;;22.20;90.80;;;;;;5134215;27;20039;-78
2023/06/12 01:10:32;;;;;;;10.45;4.05;;;22.20;90.80;;;;;;5135006;27;20059;-78
2023/06/12 01:12:59;;;;;;;10.48;3.80;;;22.10;90.70;;;;;;5135482;27;20031;-81
2023/06/12 01:15:25;;;;;;;7.97;3.60;;;22.10;90.80;;;;;;5135595;27;20027;-81
2023/06/12 01:17:51;;;;;;;9.43;3.83;;;22.10;90.80;;;;;;5135501;27;20042;-80
2023/06/12 01:20:17;;;;;;;8.80;3.92;;;22.10;90.80;;;;;;5134991;27;20023;-79
2023/06/12 01:22:54;;;;;;;10.15;3.63;;;22.20;90.70;;;;;;5134703;27;20035;-79
2023/06/12 01:25:54;;;;;;;8.38;3.63;;;22.10;90.70;;;;;;5134625;27;20031;-80
2023/06/12 01:28:28;;;;;;;10.15;3.70;;;22.20;90.80;;;;;;5134688;27;20035;-80
2023/06/12 01:31:01;;;;;;;9.82;3.75;;;22.10;90.60;;;;;;5116455;27;20488;-79
2023/06/12 01:33:35;;;;;;;12.25;3.30;;;22.10;90.50;;;;;;5139774;27;20030;-80
2023/06/12 01:36:03;;;;;;;6.72;3.38;;;22.10;90.50;;;;;;5135049;27;20035;-80
2023/06/12 01:38:31;;;;;;;8.30;3.58;;;22.00;90.50;;;;;;5135981;27;20104;-80
2023/06/12 01:40:58;;;;;;;9.45;3.80;;;22.00;90.50;;;;;;5134747;27;20035;-79
2023/06/12 01:43:24;;;;;;;8.80;3.63;;;22.00;90.60;;;;;;5116059;27;20476;-81
2023/06/12 01:45:50;;;;;;;7.75;3.85;;;22.10;90.50;;;;;;5140076;27;20039;-80
2023/06/12 01:48:16;;;;;;;8.57;3.60;;;22.10;90.30;;;;;;5148695;27;20039;-80
2023/06/12 01:50:43;;;;;;;12.93;4.00;;;22.10;90.30;;;;;;5134625;27;20037;-80
2023/06/12 01:53:13;;;;;;;11.10;3.60;;;22.10;90.30;;;;;;5134221;27;20027;-80
2023/06/12 01:55:41;;;;;;;11.25;4.10;;;22.10;90.20;;;;;;5134030;27;20051;-80
2023/06/12 01:58:07;;;;;;;7.03;3.22;;;22.10;90.20;;;;;;5134635;27;20127;-80
2023/06/12 02:00:32;;;;;;;9.50;3.80;;;22.10;90.40;;;;;;5133966;27;20107;-80
2023/06/12 02:02:58;;;;;;;8.98;3.75;;;22.10;90.30;;;;;;5134251;27;20023;-80
2023/06/12 02:05:24;;;;;;;12.82;4.13;;;22.10;90.40;;;;;;5134147;27;20032;-80
2023/06/12 02:07:49;;;;;;;7.57;3.45;;;22.00;90.30;;;;;;5133951;27;20157;-80
2023/06/12 02:10:15;;;;;;;9.80;3.30;;;22.00;90.50;;;;;;5133845;27;20492;-76
2023/06/12 02:12:43;;;;;;;11.95;4.20;;;21.90;90.50;;;;;;5115537;27;20122;-80
2023/06/12 02:15:11;;;;;;;6.55;3.58;;;22.00;90.50;;;;;;5134216;27;20084;-80
2023/06/12 02:17:37;;;;;;;6.28;3.90;;;22.00;90.60;;;;;;5134433;27;20139;-79
2023/06/12 02:20:04;;;;;;;9.38;3.63;;;21.90;90.50;;;;;;5134519;27;20030;-79
2023/06/12 02:22:30;;;;;;;8.57;3.53;;;21.90;90.50;;;;;;5133771;27;20053;-80
2023/06/12 02:24:56;;;;;;;10.13;4.25;;;21.80;90.70;;;;;;5133440;27;20035;-79
2023/06/12 02:27:22;;;;;;;9.38;3.95;;;21.80;90.60;;;;;;5134186;27;20031;-79
2023/06/12 02:29:48;;;;;;;7.20;3.97;;;21.80;90.70;;;;;;5133619;27;20411;-80
2023/06/12 02:32:14;;;;;;;8.50;4.05;;;21.90;90.80;;;;;;5133482;27;20031;-80
2023/06/12 02:34:40;;;;;;;8.10;3.90;;;21.80;90.70;;;;;;5133576;27;20031;-79
2023/06/12 02:37:08;;;;;;;9.70;3.80;;;21.80;90.70;;;;;;5133455;27;20031;-79
2023/06/12 02:39:34;;;;;;;9.85;3.88;;;21.80;90.70;;;;;;5133213;27;20080;-79
2023/06/12 02:42:00;;;;;;;12.30;3.90;;;21.80;90.80;;;;;;5133651;27;20031;-80
2023/06/12 02:44:26;;;;;;;7.97;3.63;;;21.80;90.80;;;;;;5133421;27;20043;-80
2023/06/12 02:46:56;;;;;;;7.43;3.30;;;21.80;90.80;;;;;;5133388;27;20035;-79
2023/06/12 02:49:24;;;;;;;10.38;4.10;;;21.80;90.70;;;;;;5133255;27;20039;-80
2023/06/12 02:51:50;;;;;;;10.93;3.80;;;21.80;90.80;;;;;;5133515;28;20035;-79
2023/06/12 02:54:17;;;;;;;10.48;3.90;;;21.80;90.80;;;;;;5133208;28;20050;-79
2023/06/12 02:56:46;;;;;;;10.20;3.53;;;21.80;90.80;;;;;;5133402;28;20042;-79
2023/06/12 02:59:20;;;;;;;6.65;3.80;;;21.70;90.80;;;;;;5133628;28;20031;-80
2023/06/12 03:01:47;;;;;;;11.90;4.72;;;21.70;90.90;;;;;;5133401;28;20024;-79
2023/06/12 03:04:24;;;;;;;9.48;3.42;;;21.80;90.90;;;;;;5133234;28;20400;-80
2023/06/12 03:06:53;;;;;;;8.75;4.03;;;21.80;90.80;;;;;;5133345;28;20032;-80
2023/06/12 03:09:19;;;;;;;7.53;3.70;;;21.80;90.80;;;;;;5133333;28;20043;-79
2023/06/12 03:11:47;;;;;;;9.23;4.13;;;21.80;90.80;;;;;;5133346;28;20072;-80
2023/06/12 03:14:12;;;;;;;13.23;4.22;;;21.80;90.80;;;;;;5133017;28;20023;-79
2023/06/12 03:16:38;;;;;;;7.70;4.43;;;21.80;90.80;;;;;;5114998;28;20034;-79
2023/06/12 03:19:05;;;;;;;11.05;4.30;;;21.70;90.90;;;;;;5133357;28;20114;-79
2023/06/12 03:21:31;;;;;;;11.32;4.10;;;21.70;90.90;;;;;;5133412;28;20031;-80
2023/06/12 03:23:57;;;;;;;9.25;4.30;;;21.70;91.00;;;;;;5134394;28;20499;-79
2023/06/12 03:26:23;;;;;;;15.20;4.53;;;21.70;91.00;;;;;;5133578;28;20031;-79
2023/06/12 03:28:49;;;;;;;6.75;3.80;;;21.70;91.00;;;;;;5133451;28;20047;-79
2023/06/12 03:31:15;;;;;;;9.18;3.97;;;21.60;91.00;;;;;;5151214;27;20027;-79
2023/06/12 03:33:40;;;;;;;8.60;4.03;;;21.60;91.10;;;;;;5138652;27;20088;-80
2023/06/12 03:36:07;;;;;;;8.90;4.32;;;21.50;91.20;;;;;;5137751;27;20046;-79
2023/06/12 03:38:33;;;;;;;9.85;4.00;;;21.50;91.30;;;;;;5137046;27;20118;-80
2023/06/12 03:40:59;;;;;;;8.95;4.45;;;21.50;91.30;;;;;;5137165;27;20063;-80
2023/06/12 03:43:24;;;;;;;7.90;4.20;;;21.50;91.70;;;;;;5137151;27;20114;-80
2023/06/12 03:45:50;;;;;;;11.98;4.97;;;21.50;91.40;;;;;;5137106;27;20035;-80
2023/06/12 03:48:16;;;;;;;8.10;4.95;;;21.50;91.40;;;;;;5137054;27;20062;-79
2023/06/12 03:50:41;;;;;;;11.65;4.40;;;21.50;91.40;;;;;;5136940;27;20156;-79
2023/06/12 03:53:07;;;;;;;13.07;5.10;;;21.50;91.50;;;;;;5136708;27;20043;-79
2023/06/12 03:55:34;;;;;;;11.45;4.95;;;21.40;91.50;;;;;;5137548;27;20047;-80
2023/06/12 03:58:01;;;;;;;8.63;5.20;;;21.40;91.60;;;;;;5137059;27;20099;-78
2023/06/12 04:00:26;;;;;;;7.80;4.60;;;21.40;91.70;;;;;;5136734;27;20031;-79
2023/06/12 04:02:54;;;;;;;11.93;4.88;;;21.40;91.70;;;;;;5136401;27;20042;-80
2023/06/12 04:05:20;;;;;;;11.32;4.75;;;21.40;91.70;;;;;;5136369;27;20479;-80
2023/06/12 04:07:46;;;;;;;13.07;4.88;;;21.50;91.60;;;;;;5136241;27;20023;-79
2023/06/12 04:10:12;;;;;;;8.85;4.63;;;21.50;91.70;;;;;;5136113;27;20054;-79
2023/06/12 04:12:38;;;;;;;12.30;4.97;;;21.40;91.70;;;;;;5136435;27;20516;-80
2023/06/12 04:15:04;;;;;;;9.80;4.55;;;21.40;91.70;;;;;;5135900;27;20122;-79
2023/06/12 04:17:30;;;;;;;10.20;4.93;;;21.40;91.80;;;;;;5135955;27;20027;-80
2023/06/12 04:19:56;;;;;;;9.23;3.90;;;21.40;91.70;;;;;;5136079;27;20076;-79
2023/06/12 04:22:25;;;;;;;7.88;4.72;;;21.40;91.80;;;;;;5135682;27;20033;-80
2023/06/12 04:24:53;;;;;;;7.05;4.22;;;21.40;91.50;;;;;;5136623;27;20034;-80
2023/06/12 04:27:19;;;;;;;11.60;4.93;;;21.40;91.60;;;;;;5136008;27;20482;-80
2023/06/12 04:29:45;;;;;;;8.27;4.28;;;21.40;91.60;;;;;;5136216;27;20134;-80
2023/06/12 04:32:14;;;;;;;10.45;4.82;;;21.40;91.60;;;;;;5136018;27;20434;-80
2023/06/12 04:34:41;;;;;;;9.15;4.55;;;21.40;91.60;;;;;;5136059;27;20047;-79
2023/06/12 04:37:13;;;;;;;7.80;4.22;;;21.50;91.60;;;;;;5135930;27;20038;-79
2023/06/12 04:39:40;;;;;;;8.20;4.33;;;21.50;91.40;;;;;;5147844;27;20031;-80
2023/06/12 04:42:10;;;;;;;10.60;4.65;;;21.60;91.40;;;;;;5142012;27;20102;-80
2023/06/12 04:44:39;;;;;;;7.70;4.40;;;21.60;91.30;;;;;;5137998;27;20024;-79
2023/06/12 04:47:08;;;;;;;9.43;3.90;;;21.60;91.20;;;;;;5135790;27;20031;-79
2023/06/12 04:49:35;;;;;;;10.10;4.38;;;21.60;91.20;;;;;;5136752;27;20152;-79
2023/06/12 04:52:03;;;;;;;6.90;3.97;;;21.70;91.00;;;;;;5140810;27;20046;-79
2023/06/12 04:54:35;;;;;;;10.30;3.90;;;21.70;90.90;;;;;;5149779;27;20039;-79
2023/06/12 04:57:07;;;;;;;7.82;3.80;;;21.80;90.90;;;;;;5141336;27;20028;-79
2023/06/12 04:59:37;;;;;;;6.03;3.80;;;21.80;90.90;;;;;;5135516;27;20388;-80
2023/06/12 05:02:05;;;;;;;6.78;3.55;;;21.80;90.70;;;;;;5134985;27;20118;-78
2023/06/12 05:04:30;;;;;;;9.65;4.40;;;21.90;90.60;;;;;;5116643;27;20083;-79
2023/06/12 05:06:57;;;;;;;9.55;4.32;;;22.00;90.50;;;;;;5135634;27;20036;-79
2023/06/12 05:09:23;;;;;;;9.68;4.63;;;22.10;90.40;;;;;;5116722;27;20047;-79
2023/06/12 05:11:49;;;;;;;10.63;4.00;;;22.30;90.10;;;;;;5135589;27;20047;-80
2023/06/12 05:14:15;;;;;;;8.02;3.45;;;22.50;90.00;;;;;;5142399;27;20039;-79
2023/06/12 05:16:41;;;;;;;7.20;3.70;;;22.60;89.30;;;;;;5141871;27;20076;-80
2023/06/12 05:19:09;;;;;;;8.50;3.80;;;22.80;88.50;;;;;;5135144;27;20145;-80
2023/06/12 05:21:35;;;;;;;10.13;3.97;;;23.10;87.80;;;;;;5134964;27;20039;-79
2023/06/12 05:24:01;;;;;;;7.75;3.85;;;23.50;86.50;;;;;;5134954;27;20041;-80
2023/06/12 05:26:27;;;;;;;10.98;3.55;;;24.00;85.10;;;;;;5116346;27;20114;-80
2023/06/12 05:28:52;;;;;;;7.70;3.53;;;24.40;83.30;;;;;;5134619;27;20043;-80
2023/06/12 05:31:18;;;;;;;11.02;3.30;;;24.80;82.20;;;;;;5134792;27;20070;-78
2023/06/12 05:33:44;;;;;;;11.38;3.83;;;25.00;80.60;;;;;;5134684;27;20031;-79
2023/06/12 05:36:10;;;;;;;11.32;3.38;;;25.30;79.90;;;;;;5116450;27;20129;-80
2023/06/12 05:38:35;;;;;;;5.47;3.40;;;25.70;79.10;;;;;;5134578;27;20031;-78
2023/06/12 05:41:01;;;;;;;8.30;3.58;;;26.00;77.50;;;;;;5134580;27;20400;-80
2023/06/12 05:43:27;;;;;;;7.75;3.40;;;26.20;77.00;;;;;;5134825;27;20495;-79
2023/06/12 05:45:53;;;;;;;8.02;3.70;;;26.30;75.80;;;;;;5134592;27;20039;-80
2023/06/12 05:48:19;;;;;;;8.55;3.40;;;26.40;75.30;;;;;;5134724;27;20043;-81
2023/06/12 05:50:44;;;;;;;10.13;4.07;;;26.50;75.30;;;;;;5135387;27;20050;-79
2023/06/12 05:53:10;;;;;;;9.70;3.53;;;26.60;74.70;;;;;;5134776;27;20038;-78
2023/06/12 05:55:36;;;;;;;8.50;3.45;;;26.90;74.50;;;;;;5137671;27;20107;-81
2023/06/12 05:58:02;;;;;;;6.30;2.80;;;27.20;73.70;;;;;;5134664;27;20024;-82
2023/06/12 06:00:27;;;;;;;8.25;3.55;;;27.30;72.90;;;;;;5134368;27;20035;-81
2023/06/12 06:02:53;;;;;;;9.98;3.30;;;27.30;71.90;;;;;;5133915;27;20031;-80
2023/06/12 06:05:19;;;;;;;7.05;3.03;;;27.40;72.00;;;;;;5133923;27;20047;-81
2023/06/12 06:07:45;;;;;;;6.70;3.10;;;27.60;71.60;;;;;;5137220;27;20073;-79
2023/06/12 06:10:11;;;;;;;7.95;2.70;;;27.70;70.70;;;;;;5134468;27;20043;-80
2023/06/12 06:12:37;;;;;;;11.70;3.13;;;27.90;70.00;;;;;;5135898;27;20031;-80
2023/06/12 06:15:03;;;;;;;6.15;3.10;;;27.80;70.00;;;;;;5137827;27;20031;-80
2023/06/12 06:17:28;;;;;;;8.63;3.13;;;27.90;69.40;;;;;;5134143;27;20102;-80
2023/06/12 06:19:54;;;;;;;6.78;3.28;;;27.90;69.40;;;;;;5134440;27;20106;-82
2023/06/12 06:22:22;;;;;;;8.20;3.42;;;28.00;68.90;;;;;;5136075;27;20031;-79
2023/06/12 06:24:48;;;;;;;11.18;3.65;;;28.10;68.90;;;;;;5133832;27;20027;-81
2023/06/12 06:27:13;;;;;;;7.45;3.25;;;28.00;68.60;;;;;;5133483;27;20035;-80
2023/06/12 06:29:39;;;;;;;8.75;3.63;;;28.10;68.40;;;;;;5133800;27;20104;-81
2023/06/12 06:32:05;;;;;;;12.05;2.88;;;28.10;68.40;;;;;;5133712;27;20027;-79
2023/06/12 06:34:31;;;;;;;10.40;3.10;;;28.10;68.00;;;;;;5133781;27;20072;-81
2023/06/12 06:36:56;;;;;;;7.90;3.28;;;28.20;67.50;;;;;;5133611;27;20035;-79
2023/06/12 06:39:22;;;;;;;9.00;3.85;;;28.20;67.90;;;;;;5133387;27;20418;-80
2023/06/12 06:41:48;;;;;;;6.90;3.22;;;28.40;67.60;;;;;;5115659;27;20088;-81
2023/06/12 06:44:14;;;;;;;7.97;3.40;;;28.60;67.10;;;;;;5133756;27;20038;-79
2023/06/12 06:46:39;;;;;;;9.48;3.80;;;28.70;66.90;;;;;;5133667;27;20061;-80
2023/06/12 06:49:05;;;;;;;7.97;3.28;;;28.90;66.90;;;;;;5134593;27;20042;-80
2023/06/12 06:51:31;;;;;;;6.75;3.05;;;29.00;66.50;;;;;;5134653;27;20034;-78
2023/06/12 06:53:58;;;;;;;9.15;3.13;;;29.10;65.40;;;;;;5133678;28;20476;-80
2023/06/12 06:56:23;;;;;;;7.00;3.00;;;29.20;65.70;;;;;;5134153;28;20036;-80
2023/06/12 06:58:49;;;;;;;11.32;3.60;;;29.40;65.40;;;;;;5118893;28;20027;-81
2023/06/12 07:01:15;;;;;;;5.47;3.05;;;29.40;64.60;;;;;;5115948;28;20495;-80
2023/06/12 07:03:41;;;;;;;9.55;3.40;;;29.40;64.70;;;;;;5134061;28;20039;-80
2023/06/12 07:06:07;;;;;;;9.45;3.22;;;29.40;65.30;;;;;;5134484;27;20560;-81
2023/06/12 07:08:33;;;;;;;7.65;3.63;;;29.40;64.60;;;;;;5137510;27;20141;-82
2023/06/12 07:10:59;;;;;;;7.43;3.03;;;29.20;65.10;;;;;;5138091;27;20035;-80
2023/06/12 07:13:24;;;;;;;8.82;3.03;;;29.10;65.20;;;;;;5138198;27;20035;-81
2023/06/12 07:15:51;;;;;;;11.63;3.65;;;28.90;65.40;;;;;;5137512;27;20102;-79
2023/06/12 07:18:17;;;;;;;7.72;3.70;;;28.90;65.40;;;;;;5138382;27;20082;-81
2023/06/12 07:20:43;;;;;;;11.05;3.45;;;29.00;65.50;;;;;;5138272;27;20070;-82
2023/06/12 07:23:09;;;;;;;10.80;3.05;;;29.20;65.00;;;;;;5139384;27;20377;-81
2023/06/12 07:25:34;;;;;;;8.73;3.17;;;29.20;64.60;;;;;;5138444;27;20103;-81
2023/06/12 07:28:00;;;;;;;7.10;3.28;;;29.20;64.60;;;;;;5137711;27;20035;-81
2023/06/12 07:30:26;;;;;;;8.48;3.38;;;29.30;64.70;;;;;;5138044;27;20027;-82
2023/06/12 07:32:52;;;;;;;7.78;3.20;;;29.30;64.20;;;;;;5137930;27;20035;-81
2023/06/12 07:35:18;;;;;;;4.80;3.08;;;29.30;63.60;;;;;;5137473;27;20028;-81
2023/06/12 07:37:45;;;;;;;6.97;2.90;;;29.20;63.50;;;;;;5137456;27;20028;-82
2023/06/12 07:40:12;;;;;;;9.02;3.20;;;29.30;63.70;;;;;;5137268;27;20024;-81
2023/06/12 07:42:38;;;;;;;5.57;3.08;;;29.40;63.30;;;;;;5137017;27;20076;-80
2023/06/12 07:45:04;;;;;;;5.65;3.30;;;29.10;63.40;;;;;;5137349;27;20031;-82
2023/06/12 07:47:30;;;;;;;6.63;3.28;;;29.10;63.50;;;;;;5137474;27;20030;-80
2023/06/12 07:49:58;;;;;;;7.38;3.63;;;29.00;63.50;;;;;;5137159;27;20126;-80
2023/06/12 07:52:24;;;;;;;7.18;3.50;;;28.90;64.00;;;;;;5138277;27;20027;-80
2023/06/12 07:54:50;;;;;;;10.70;3.25;;;28.90;64.10;;;;;;5137733;27;20169;-81
2023/06/12 07:57:16;;;;;;;8.95;3.75;;;29.00;64.50;;;;;;5124998;27;20046;-80
2023/06/12 07:59:44;;;;;;;11.63;3.97;;;28.90;64.50;;;;;;5145038;27;20028;-80
2023/06/12 08:02:10;;;;;;;8.05;3.97;;;28.70;64.80;;;;;;5143818;27;20093;-81
2023/06/12 08:04:40;;;;;;;5.70;3.80;;;28.60;65.30;;;;;;5137461;27;20031;-81
2023/06/12 08:07:11;;;;;;;10.88;3.97;;;28.40;65.50;;;;;;5136998;27;20035;-82
2023/06/12 08:09:43;;;;;;;12.85;3.78;;;28.30;66.10;;;;;;5136528;27;20027;-81
2023/06/12 08:12:12;;;;;;;5.35;3.50;;;28.40;66.10;;;;;;5137556;27;20042;-82
2023/06/12 08:14:38;;;;;;;8.23;3.80;;;28.40;65.40;;;;;;5140653;27;20038;-80
2023/06/12 08:17:05;;;;;;;7.30;4.15;;;28.30;65.20;;;;;;5119302;27;20067;-80
2023/06/12 08:19:32;;;;;;;8.63;4.10;;;28.30;65.40;;;;;;5118289;27;20040;-81
2023/06/12 08:21:59;;;;;;;7.18;3.92;;;28.10;66.10;;;;;;5137072;27;20937;-80
2023/06/12 08:24:29;;;;;;;8.02;4.32;;;28.00;66.50;;;;;;5138745;27;20046;-83
2023/06/12 08:26:55;;;;;;;7.28;4.20;;;27.90;66.60;;;;;;5121271;27;20034;-82
2023/06/12 08:29:21;;;;;;;13.20;4.72;;;27.80;66.40;;;;;;5118221;27;20043;-81
2023/06/12 08:31:47;;;;;;;8.35;4.40;;;27.60;66.80;;;;;;5136551;27;20590;-79
2023/06/12 08:34:12;;;;;;;7.93;4.05;;;27.50;67.20;;;;;;5136604;27;20114;-82
2023/06/12 08:36:38;;;;;;;13.93;4.25;;;27.50;67.50;;;;;;5138058;27;20027;-81
2023/06/12 08:39:04;;;;;;;8.15;3.83;;;27.40;67.50;;;;;;5140825;27;20078;-80
2023/06/12 08:41:32;;;;;;;10.43;4.20;;;27.40;67.70;;;;;;5139613;27;20042;-81
2023/06/12 08:44:01;;;;;;;8.68;4.15;;;27.40;68.10;;;;;;5137566;27;20056;-81
2023/06/12 08:46:30;;;;;;;7.75;4.38;;;27.40;67.50;;;;;;5136096;27;20486;-82
2023/06/12 08:49:00;;;;;;;11.02;4.18;;;27.30;68.00;;;;;;5136162;27;20054;-81
2023/06/12 08:51:28;;;;;;;10.23;4.43;;;27.20;68.20;;;;;;5135705;27;20031;-79
2023/06/12 08:53:56;;;;;;;10.05;4.18;;;27.10;68.20;;;;;;5117093;27;20081;-81
2023/06/12 08:56:22;;;;;;;8.60;3.85;;;27.10;68.10;;;;;;5135736;27;20039;-83
2023/06/12 08:58:48;;;;;;;7.60;3.70;;;27.00;67.90;;;;;;5135704;27;20451;-81
2023/06/12 09:01:14;;;;;;;7.50;3.47;;;27.00;68.20;;;;;;5135670;27;20481;-82
2023/06/12 09:03:45;;;;;;;8.88;4.05;;;27.00;68.30;;;;;;5135650;27;20476;-79
2023/06/12 09:06:12;;;;;;;8.50;4.00;;;27.00;67.60;;;;;;5135784;27;20047;-82
2023/06/12 09:08:39;;;;;;;6.47;3.97;;;27.00;67.50;;;;;;5135457;27;20128;-81
2023/06/12 09:11:05;;;;;;;7.72;4.18;;;27.10;67.50;;;;;;5135512;27;20039;-81
2023/06/12 09:13:41;;;;;;;8.05;4.40;;;27.10;68.00;;;;;;5135615;27;20035;-80
2023/06/12 09:16:11;;;;;;;7.10;3.80;;;27.20;67.70;;;;;;5135377;27;20039;-80
2023/06/12 09:18:48;;;;;;;8.88;3.70;;;27.20;67.60;;;;;;5135263;27;20385;-81
2023/06/12 09:21:14;;;;;;;11.23;3.42;;;27.20;67.70;;;;;;5137671;27;20118;-80
2023/06/12 09:23:41;;;;;;;7.03;4.25;;;27.20;67.80;;;;;;5134998;27;20160;-81
2023/06/12 09:26:13;;;;;;;6.72;3.80;;;27.30;67.70;;;;;;5135202;27;20032;-81
2023/06/12 09:28:42;;;;;;;7.53;3.88;;;27.30;67.20;;;;;;5115899;27;20035;-80
2023/06/12 09:31:08;;;;;;;6.32;3.78;;;27.40;67.10;;;;;;5135323;27;20078;-81
2023/06/12 09:33:39;;;;;;;6.50;3.00;;;27.40;67.10;;;;;;5135454;27;20031;-80
2023/06/12 09:36:05;;;;;;;5.82;3.50;;;27.40;66.90;;;;;;5134583;27;20076;-80
2023/06/12 09:38:32;;;;;;;7.32;3.85;;;27.40;66.70;;;;;;5116194;27;20350;-82
2023/06/12 09:41:00;;;;;;;6.85;4.20;;;27.50;66.30;;;;;;5135194;27;20035;-82
2023/06/12 09:43:30;;;;;;;9.35;4.03;;;27.50;66.50;;;;;;5135126;27;20031;-81
2023/06/12 09:45:59;;;;;;;8.43;4.57;;;27.50;66.20;;;;;;5134787;27;20027;-81
2023/06/12 09:48:32;;;;;;;7.72;4.57;;;27.60;66.20;;;;;;5134462;27;20027;-80
2023/06/12 09:51:07;;;;;;;11.95;4.78;;;27.60;66.20;;;;;;5135039;27;20070;-81
2023/06/12 09:53:38;;;;;;;6.43;3.72;;;27.70;66.20;;;;;;5118990;27;20023;-82
2023/06/12 09:56:08;;;;;;;10.43;4.35;;;27.80;65.90;;;;;;5142369;27;20036;-81
2023/06/12 09:58:36;;;;;;;14.48;4.50;;;27.80;64.70;;;;;;5134705;27;20023;-81
2023/06/12 10:01:05;;;;;;;7.72;3.83;;;27.80;63.70;;;;;;5134553;27;20027;-81
2023/06/12 10:03:37;;;;;;;7.97;3.33;;;27.80;63.70;;;;;;5134794;27;20058;-82
2023/06/12 10:06:06;;;;;;;6.13;3.50;;;27.80;64.20;;;;;;5116658;27;20035;-81
2023/06/12 10:08:33;;;;;;;5.07;3.53;;;28.00;62.80;;;;;;5134172;27;20034;-81
2023/06/12 10:10:59;;;;;;;7.15;3.30;;;28.00;62.60;;;;;;5134534;27;20114;-81
2023/06/12 10:13:25;;;;;;;8.48;3.20;;;28.00;61.80;;;;;;5137276;27;20506;-79
2023/06/12 10:15:52;;;;;;;4.63;3.20;;;28.00;61.40;;;;;;5137591;27;20388;-79
2023/06/12 10:18:19;;;;;;;6.85;3.60;;;28.00;60.90;;;;;;5139383;27;20019;-80
2023/06/12 10:20:46;;;;;;;4.95;3.25;;;28.00;61.30;;;;;;5135247;27;20027;-83
2023/06/12 10:23:12;;;;;;;5.10;3.10;;;28.20;60.20;;;;;;5134805;27;20084;-82
2023/06/12 10:25:38;;;;;;;4.65;2.80;;;28.10;59.50;;;;;;5143316;27;20027;-80
2023/06/12 10:28:07;;;;;;;5.15;3.10;;;28.10;58.80;;;;;;5137919;27;20023;-81
2023/06/12 10:30:32;;;;;;;5.57;3.20;;;28.10;59.50;;;;;;5134035;27;20077;-80
2023/06/12 10:33:13;;;;;;;8.00;3.50;;;28.20;59.40;;;;;;5134016;27;20054;-80
2023/06/12 10:35:39;;;;;;;6.57;3.40;;;28.20;60.10;;;;;;5133953;27;20027;-82
2023/06/12 10:38:05;;;;;;;6.25;3.83;;;28.20;60.00;;;;;;5133693;27;20106;-79
2023/06/12 10:40:31;;;;;;;6.10;3.80;;;28.30;60.20;;;;;;5133480;27;20039;-81
2023/06/12 10:43:04;;;;;;;7.40;3.78;;;28.40;60.00;;;;;;5133855;27;20024;-81
2023/06/12 10:45:32;;;;;;;10.05;3.80;;;28.50;60.30;;;;;;5134095;27;20045;-81
2023/06/12 10:48:07;;;;;;;16.67;4.80;;;28.50;59.70;;;;;;5115381;27;20030;-80
2023/06/12 10:50:33;;;;;;;8.02;3.45;;;28.50;59.90;;;;;;5133839;27;20088;-81
2023/06/12 10:53:04;;;;;;;7.30;4.20;;;28.50;58.40;;;;;;5115807;28;20030;-80
2023/06/12 10:55:31;;;;;;;5.60;3.35;;;28.60;58.30;;;;;;5133611;28;20099;-80
2023/06/12 10:58:00;;;;;;;4.88;2.50;;;28.70;57.70;;;;;;5117760;28;20024;-83
2023/06/12 11:00:37;;;;;;;5.90;2.50;;;28.70;56.90;;;;;;5137445;28;20508;-81
2023/06/12 11:03:13;;;;;;;3.22;1.98;;;28.70;54.80;;;;;;5135851;28;20036;-81
2023/06/12 11:05:46;;;;;;;3.35;2.20;;;28.70;53.80;;;;;;5115681;28;20031;-81
2023/06/12 11:08:11;;;;;;;3.10;2.25;;;28.70;53.80;;;;;;5133649;28;20065;-80
2023/06/12 11:10:38;;;;;;;8.68;2.30;;;28.70;54.00;;;;;;5135501;28;20143;-81
2023/06/12 11:13:04;;;;;;;4.15;2.80;;;28.70;54.20;;;;;;5120479;28;20030;-82
2023/06/12 11:15:39;;;;;;;3.58;2.40;;;28.80;54.10;;;;;;5133633;28;20092;-81
2023/06/12 11:18:05;;;;;;;6.40;2.60;;;28.90;53.90;;;;;;5133556;28;20035;-81
2023/06/12 11:20:33;;;;;;;4.00;2.33;;;29.00;54.00;;;;;;5133748;28;20031;-81
2023/06/12 11:23:03;;;;;;;6.47;2.65;;;29.10;54.10;;;;;;5133434;28;20020;-82
2023/06/12 11:25:42;;;;;;;6.60;2.53;;;29.10;54.20;;;;;;5133570;28;20400;-82
2023/06/12 11:28:08;;;;;;;5.90;3.20;;;29.00;53.60;;;;;;5133649;28;20055;-82
2023/06/12 11:30:34;;;;;;;5.45;3.05;;;29.00;53.80;;;;;;5133426;28;20039;-80
2023/06/12 11:33:13;;;;;;;4.30;2.90;;;29.20;53.80;;;;;;5133213;28;20361;-81
2023/06/12 11:35:44;;;;;;;6.03;2.88;;;29.20;53.90;;;;;;5133194;28;20031;-81
2023/06/12 11:38:14;;;;;;;5.28;2.50;;;29.20;54.10;;;;;;5114866;28;20024;-81
2023/06/12 11:40:41;;;;;;;6.60;3.00;;;29.30;54.00;;;;;;5133513;28;20032;-81
2023/06/12 11:43:06;;;;;;;8.20;3.30;;;29.20;53.80;;;;;;5133286;28;20103;-82
2023/06/12 11:45:32;;;;;;;6.20;2.67;;;29.10;53.90;;;;;;5132871;28;20501;-81
2023/06/12 11:48:01;;;;;;;4.88;2.90;;;29.10;53.60;;;;;;5133839;28;20034;-82
2023/06/12 11:50:27;;;;;;;6.15;2.97;;;29.10;53.20;;;;;;5133815;28;20438;-79
2023/06/12 11:52:55;;;;;;;3.88;2.40;;;29.10;53.60;;;;;;5135812;27;20027;-81
2023/06/12 11:55:21;;;;;;;7.03;2.83;;;29.20;53.10;;;;;;5136676;27;20130;-80
2023/06/12 11:57:51;;;;;;;9.40;2.83;;;29.20;53.00;;;;;;5136728;27;20035;-81
2023/06/12 12:00:21;;;;;;;6.00;2.92;;;29.40;52.70;;;;;;5136926;27;20049;-80
2023/06/12 12:02:55;;;;;;;4.22;2.70;;;29.40;52.60;;;;;;5136994;27;20084;-83
2023/06/12 12:05:23;;;;;;;3.60;2.35;;;29.40;52.30;;;;;;5138020;27;20043;-82
2023/06/12 12:07:57;;;;;;;6.85;2.35;;;29.40;52.10;;;;;;5122398;27;20091;-81
2023/06/12 12:10:24;;;;;;;3.45;2.40;;;29.30;51.50;;;;;;5139891;27;20507;-80
2023/06/12 12:12:51;;;;;;;6.90;2.50;;;29.40;51.40;;;;;;5136572;27;20105;-82
2023/06/12 12:15:21;;;;;;;4.85;2.33;;;29.50;51.30;;;;;;5137166;27;20030;-80
2023/06/12 12:17:47;;;;;;;3.75;2.05;;;29.60;49.80;;;;;;5136701;27;20027;-80
2023/06/12 12:20:15;;;;;;;3.20;2.20;;;29.70;50.10;;;;;;5137220;27;20459;-81
2023/06/12 12:22:42;;;;;;;3.67;2.20;;;29.70;50.30;;;;;;5136973;27;20112;-81
2023/06/12 12:25:09;;;;;;;6.55;3.08;;;29.80;50.60;;;;;;5137265;27;20153;-81
2023/06/12 12:27:36;;;;;;;5.28;2.50;;;30.00;50.90;;;;;;5141941;27;20032;-81
2023/06/12 12:30:05;;;;;;;6.55;2.85;;;30.00;50.50;;;;;;5143466;27;20043;-82
2023/06/12 12:32:30;;;;;;;9.40;3.38;;;30.00;51.00;;;;;;5140175;27;20031;-81
2023/06/12 12:34:57;;;;;;;7.38;3.40;;;30.00;52.70;;;;;;5137385;27;20046;-81
2023/06/12 12:37:23;;;;;;;6.97;3.33;;;30.00;54.50;;;;;;5136238;27;20472;-82
2023/06/12 12:39:48;;;;;;;6.05;3.35;;;30.00;55.60;;;;;;5136521;27;20059;-81
2023/06/12 12:42:14;;;;;;;10.57;3.17;;;29.90;56.20;;;;;;5117772;27;20031;-83
2023/06/12 12:44:40;;;;;;;8.05;3.50;;;29.90;56.90;;;;;;5136330;27;20027;-81